sensor_id;sensor_type;location;lat;lon;timestamp;temperature;humidity
61016;DHT22;46902;52.920;6.536;2022-11-20T00:01:38;0.20;99.90
61016;DHT22;46902;52.920;6.536;2022-11-20T00:04:04;0.20;99.90
61016;DHT22;46902;52.920;6.536;2022-11-20T00:06:29;0.20;99.90
61016;DHT22;46902;52.920;6.536;2022-11-20T00:08:57;0.20;99.90
61016;DHT22;46902;52.920;6.536;2022-11-20T00:11:25;0.30;99.90
61016;DHT22;46902;52.920;6.536;2022-11-20T00:13:55;0.30;99.90
61016;DHT22;46902;52.920;6.536;2022-11-20T00:16:24;0.30;99.90
61016;DHT22;46902;52.920;6.536;2022-11-20T00:18:50;0.30;99.90
61016;DHT22;46902;52.920;6.536;2022-11-20T00:21:24;0.40;99.90
61016;DHT22;46902;52.920;6.536;2022-11-20T00:23:51;0.40;99.90
61016;DHT22;46902;52.920;6.536;2022-11-20T00:26:18;0.40;99.90
61016;DHT22;46902;52.920;6.536;2022-11-20T00:28:52;0.40;99.90
61016;DHT22;46902;52.920;6.536;2022-11-20T00:31:18;0.40;99.90
61016;DHT22;46902;52.920;6.536;2022-11-20T00:33:45;0.40;99.90
61016;DHT22;46902;52.920;6.536;2022-11-20T00:36:16;0.40;99.90
61016;DHT22;46902;52.920;6.536;2022-11-20T00:38:43;0.40;99.90
61016;DHT22;46902;52.920;6.536;2022-11-20T00:41:14;0.50;99.90
61016;DHT22;46902;52.920;6.536;2022-11-20T00:43:40;0.50;99.90
61016;DHT22;46902;52.920;6.536;2022-11-20T00:46:12;0.60;99.90
61016;DHT22;46902;52.920;6.536;2022-11-20T00:48:38;0.60;99.90
61016;DHT22;46902;52.920;6.536;2022-11-20T00:51:04;0.70;99.90
61016;DHT22;46902;52.920;6.536;2022-11-20T00:53:29;0.70;99.90
61016;DHT22;46902;52.920;6.536;2022-11-20T00:55:56;0.70;99.90
61016;DHT22;46902;52.920;6.536;2022-11-20T00:58:23;0.70;99.90
61016;DHT22;46902;52.920;6.536;2022-11-20T01:00:49;0.70;99.90
61016;DHT22;46902;52.920;6.536;2022-11-20T01:03:19;0.70;99.90
61016;DHT22;46902;52.920;6.536;2022-11-20T01:05:44;0.70;99.90
61016;DHT22;46902;52.920;6.536;2022-11-20T01:08:10;0.70;99.90
61016;DHT22;46902;52.920;6.536;2022-11-20T01:10:36;0.70;99.90
61016;DHT22;46902;52.920;6.536;2022-11-20T01:13:02;0.70;99.90
61016;DHT22;46902;52.920;6.536;2022-11-20T01:15:45;0.80;99.90
61016;DHT22;46902;52.920;6.536;2022-11-20T01:18:11;0.80;99.90
61016;DHT22;46902;52.920;6.536;2022-11-20T01:20:37;0.80;99.90
61016;DHT22;46902;52.920;6.536;2022-11-20T01:23:03;0.80;99.90
61016;DHT22;46902;52.920;6.536;2022-11-20T01:25:29;0.80;99.90
61016;DHT22;46902;52.920;6.536;2022-11-20T01:27:55;0.90;99.90
61016;DHT22;46902;52.920;6.536;2022-11-20T01:30:20;0.80;99.90
61016;DHT22;46902;52.920;6.536;2022-11-20T01:32:46;0.90;99.90
61016;DHT22;46902;52.920;6.536;2022-11-20T01:35:11;0.80;99.90
61016;DHT22;46902;52.920;6.536;2022-11-20T01:37:37;0.90;99.90
61016;DHT22;46902;52.920;6.536;2022-11-20T01:40:03;0.90;99.90
61016;DHT22;46902;52.920;6.536;2022-11-20T01:42:28;0.80;99.90
61016;DHT22;46902;52.920;6.536;2022-11-20T01:48:13;0.90;99.90
61016;DHT22;46902;52.920;6.536;2022-11-20T01:50:39;0.80;99.90
61016;DHT22;46902;52.920;6.536;2022-11-20T01:53:08;0.90;99.90
61016;DHT22;46902;52.920;6.536;2022-11-20T01:55:41;0.90;99.90
61016;DHT22;46902;52.920;6.536;2022-11-20T01:58:08;0.90;99.90
61016;DHT22;46902;52.920;6.536;2022-11-20T02:00:34;0.90;99.90
61016;DHT22;46902;52.920;6.536;2022-11-20T02:03:12;0.90;99.90
61016;DHT22;46902;52.920;6.536;2022-11-20T02:08:11;0.90;99.90
61016;DHT22;46902;52.920;6.536;2022-11-20T02:10:38;0.90;99.90
61016;DHT22;46902;52.920;6.536;2022-11-20T02:13:04;0.90;99.90
61016;DHT22;46902;52.920;6.536;2022-11-20T02:15:49;0.90;99.90
61016;DHT22;46902;52.920;6.536;2022-11-20T02:18:18;0.90;99.90
61016;DHT22;46902;52.920;6.536;2022-11-20T02:20:46;0.90;99.90
61016;DHT22;46902;52.920;6.536;2022-11-20T02:25:58;0.90;99.90
61016;DHT22;46902;52.920;6.536;2022-11-20T02:28:26;1.00;99.90
61016;DHT22;46902;52.920;6.536;2022-11-20T02:30:52;1.00;99.90
61016;DHT22;46902;52.920;6.536;2022-11-20T02:33:17;1.00;99.90
61016;DHT22;46902;52.920;6.536;2022-11-20T02:35:45;1.00;99.90
61016;DHT22;46902;52.920;6.536;2022-11-20T02:38:13;1.00;99.90
61016;DHT22;46902;52.920;6.536;2022-11-20T02:40:38;1.00;99.90
61016;DHT22;46902;52.920;6.536;2022-11-20T02:43:04;1.00;99.90
61016;DHT22;46902;52.920;6.536;2022-11-20T02:45:30;1.10;99.90
61016;DHT22;46902;52.920;6.536;2022-11-20T02:47:55;1.00;99.90
61016;DHT22;46902;52.920;6.536;2022-11-20T02:50:21;1.00;99.90
61016;DHT22;46902;52.920;6.536;2022-11-20T02:52:46;1.00;99.90
61016;DHT22;46902;52.920;6.536;2022-11-20T02:55:12;1.00;99.90
61016;DHT22;46902;52.920;6.536;2022-11-20T02:57:38;1.10;99.90
61016;DHT22;46902;52.920;6.536;2022-11-20T03:00:04;1.00;99.90
61016;DHT22;46902;52.920;6.536;2022-11-20T03:02:30;1.00;99.90
61016;DHT22;46902;52.920;6.536;2022-11-20T03:04:56;1.00;99.90
61016;DHT22;46902;52.920;6.536;2022-11-20T03:07:22;1.00;99.90
61016;DHT22;46902;52.920;6.536;2022-11-20T03:09:47;1.00;99.90
61016;DHT22;46902;52.920;6.536;2022-11-20T03:12:13;1.10;99.90
61016;DHT22;46902;52.920;6.536;2022-11-20T03:14:39;1.00;99.90
61016;DHT22;46902;52.920;6.536;2022-11-20T03:17:04;1.00;99.90
61016;DHT22;46902;52.920;6.536;2022-11-20T03:19:30;1.00;99.90
61016;DHT22;46902;52.920;6.536;2022-11-20T03:21:55;1.00;99.90
61016;DHT22;46902;52.920;6.536;2022-11-20T03:24:21;1.00;99.90
61016;DHT22;46902;52.920;6.536;2022-11-20T03:26:47;1.00;99.90
61016;DHT22;46902;52.920;6.536;2022-11-20T03:29:12;1.00;99.90
61016;DHT22;46902;52.920;6.536;2022-11-20T03:31:39;1.00;99.90
61016;DHT22;46902;52.920;6.536;2022-11-20T03:34:06;1.10;99.90
61016;DHT22;46902;52.920;6.536;2022-11-20T03:36:32;1.10;99.90
61016;DHT22;46902;52.920;6.536;2022-11-20T03:38:58;1.10;99.90
61016;DHT22;46902;52.920;6.536;2022-11-20T03:41:26;1.10;99.90
61016;DHT22;46902;52.920;6.536;2022-11-20T03:43:54;1.10;99.90
61016;DHT22;46902;52.920;6.536;2022-11-20T03:46:20;1.20;99.90
61016;DHT22;46902;52.920;6.536;2022-11-20T03:48:46;1.20;99.90
61016;DHT22;46902;52.920;6.536;2022-11-20T03:51:15;1.20;99.90
61016;DHT22;46902;52.920;6.536;2022-11-20T03:53:43;1.20;99.90
61016;DHT22;46902;52.920;6.536;2022-11-20T03:56:10;1.20;99.90
61016;DHT22;46902;52.920;6.536;2022-11-20T03:58:37;1.10;99.90
61016;DHT22;46902;52.920;6.536;2022-11-20T04:03:32;1.10;99.90
61016;DHT22;46902;52.920;6.536;2022-11-20T04:06:03;1.10;99.90
61016;DHT22;46902;52.920;6.536;2022-11-20T04:08:30;1.20;99.90
61016;DHT22;46902;52.920;6.536;2022-11-20T04:10:55;1.20;99.90
61016;DHT22;46902;52.920;6.536;2022-11-20T04:13:21;1.20;99.90
61016;DHT22;46902;52.920;6.536;2022-11-20T04:15:46;1.20;99.90
61016;DHT22;46902;52.920;6.536;2022-11-20T04:18:12;1.20;99.90
61016;DHT22;46902;52.920;6.536;2022-11-20T04:20:37;1.20;99.90
61016;DHT22;46902;52.920;6.536;2022-11-20T04:23:03;1.20;99.90
61016;DHT22;46902;52.920;6.536;2022-11-20T04:25:29;1.20;99.90
61016;DHT22;46902;52.920;6.536;2022-11-20T04:27:54;1.20;99.90
61016;DHT22;46902;52.920;6.536;2022-11-20T04:30:20;1.20;99.90
61016;DHT22;46902;52.920;6.536;2022-11-20T04:32:45;1.30;99.90
61016;DHT22;46902;52.920;6.536;2022-11-20T04:35:11;1.30;99.90
61016;DHT22;46902;52.920;6.536;2022-11-20T04:37:36;1.30;99.90
61016;DHT22;46902;52.920;6.536;2022-11-20T04:40:02;1.30;99.90
61016;DHT22;46902;52.920;6.536;2022-11-20T04:42:28;1.30;99.90
61016;DHT22;46902;52.920;6.536;2022-11-20T04:44:53;1.20;99.90
61016;DHT22;46902;52.920;6.536;2022-11-20T04:47:19;1.20;99.90
61016;DHT22;46902;52.920;6.536;2022-11-20T04:49:44;1.20;99.90
61016;DHT22;46902;52.920;6.536;2022-11-20T04:52:10;1.30;99.90
61016;DHT22;46902;52.920;6.536;2022-11-20T04:54:35;1.30;99.90
61016;DHT22;46902;52.920;6.536;2022-11-20T04:57:01;1.30;99.90
61016;DHT22;46902;52.920;6.536;2022-11-20T04:59:27;1.30;99.90
61016;DHT22;46902;52.920;6.536;2022-11-20T05:01:52;1.20;99.90
61016;DHT22;46902;52.920;6.536;2022-11-20T05:04:18;1.20;99.90
61016;DHT22;46902;52.920;6.536;2022-11-20T05:06:43;1.20;99.90
61016;DHT22;46902;52.920;6.536;2022-11-20T05:09:11;1.20;99.90
61016;DHT22;46902;52.920;6.536;2022-11-20T05:11:36;1.20;99.90
61016;DHT22;46902;52.920;6.536;2022-11-20T05:14:02;1.30;99.90
61016;DHT22;46902;52.920;6.536;2022-11-20T05:16:27;1.30;99.90
61016;DHT22;46902;52.920;6.536;2022-11-20T05:18:53;1.30;99.90
61016;DHT22;46902;52.920;6.536;2022-11-20T05:21:20;1.30;99.90
61016;DHT22;46902;52.920;6.536;2022-11-20T05:23:46;1.30;99.90
61016;DHT22;46902;52.920;6.536;2022-11-20T05:26:18;1.30;99.90
61016;DHT22;46902;52.920;6.536;2022-11-20T05:28:44;1.30;99.90
61016;DHT22;46902;52.920;6.536;2022-11-20T05:31:16;1.30;99.90
61016;DHT22;46902;52.920;6.536;2022-11-20T05:33:43;1.30;99.90
61016;DHT22;46902;52.920;6.536;2022-11-20T05:36:09;1.30;99.90
61016;DHT22;46902;52.920;6.536;2022-11-20T05:38:35;1.30;99.90
61016;DHT22;46902;52.920;6.536;2022-11-20T05:41:09;1.30;99.90
61016;DHT22;46902;52.920;6.536;2022-11-20T05:43:36;1.40;99.90
61016;DHT22;46902;52.920;6.536;2022-11-20T05:46:03;1.30;99.90
61016;DHT22;46902;52.920;6.536;2022-11-20T05:48:29;1.30;99.90
61016;DHT22;46902;52.920;6.536;2022-11-20T05:50:57;1.30;99.90
61016;DHT22;46902;52.920;6.536;2022-11-20T05:53:23;1.30;99.90
61016;DHT22;46902;52.920;6.536;2022-11-20T05:55:58;1.30;99.90
61016;DHT22;46902;52.920;6.536;2022-11-20T05:58:24;1.40;99.90
61016;DHT22;46902;52.920;6.536;2022-11-20T06:00:50;1.40;99.90
61016;DHT22;46902;52.920;6.536;2022-11-20T06:03:15;1.40;99.90
61016;DHT22;46902;52.920;6.536;2022-11-20T06:05:41;1.30;99.90
61016;DHT22;46902;52.920;6.536;2022-11-20T06:08:06;1.40;99.90
61016;DHT22;46902;52.920;6.536;2022-11-20T06:10:32;1.30;99.90
61016;DHT22;46902;52.920;6.536;2022-11-20T06:12:58;1.30;99.90
61016;DHT22;46902;52.920;6.536;2022-11-20T06:15:24;1.40;99.90
61016;DHT22;46902;52.920;6.536;2022-11-20T06:17:52;1.30;99.90
61016;DHT22;46902;52.920;6.536;2022-11-20T06:20:19;1.30;99.90
61016;DHT22;46902;52.920;6.536;2022-11-20T06:22:44;1.30;99.90
61016;DHT22;46902;52.920;6.536;2022-11-20T06:25:10;1.30;99.90
61016;DHT22;46902;52.920;6.536;2022-11-20T06:27:35;1.30;99.90
61016;DHT22;46902;52.920;6.536;2022-11-20T06:30:01;1.30;99.90
61016;DHT22;46902;52.920;6.536;2022-11-20T06:32:26;1.30;99.90
61016;DHT22;46902;52.920;6.536;2022-11-20T06:34:52;1.30;99.90
61016;DHT22;46902;52.920;6.536;2022-11-20T06:37:17;1.30;99.90
61016;DHT22;46902;52.920;6.536;2022-11-20T06:39:43;1.30;99.90
61016;DHT22;46902;52.920;6.536;2022-11-20T06:42:09;1.30;99.90
61016;DHT22;46902;52.920;6.536;2022-11-20T06:44:34;1.40;99.90
61016;DHT22;46902;52.920;6.536;2022-11-20T06:47:00;1.40;99.90
61016;DHT22;46902;52.920;6.536;2022-11-20T06:49:26;1.40;99.90
61016;DHT22;46902;52.920;6.536;2022-11-20T06:51:51;1.40;99.90
61016;DHT22;46902;52.920;6.536;2022-11-20T06:54:17;1.40;99.90
61016;DHT22;46902;52.920;6.536;2022-11-20T06:56:46;1.40;99.90
61016;DHT22;46902;52.920;6.536;2022-11-20T06:59:13;1.40;99.90
61016;DHT22;46902;52.920;6.536;2022-11-20T07:01:38;1.40;99.90
61016;DHT22;46902;52.920;6.536;2022-11-20T07:04:04;1.40;99.90
61016;DHT22;46902;52.920;6.536;2022-11-20T07:06:30;1.40;99.90
61016;DHT22;46902;52.920;6.536;2022-11-20T07:08:56;1.40;99.90
61016;DHT22;46902;52.920;6.536;2022-11-20T07:11:21;1.40;99.90
61016;DHT22;46902;52.920;6.536;2022-11-20T07:13:47;1.40;99.90
61016;DHT22;46902;52.920;6.536;2022-11-20T07:16:12;1.40;99.90
61016;DHT22;46902;52.920;6.536;2022-11-20T07:18:38;1.40;99.90
61016;DHT22;46902;52.920;6.536;2022-11-20T07:21:08;1.40;99.90
61016;DHT22;46902;52.920;6.536;2022-11-20T07:23:34;1.40;99.90
61016;DHT22;46902;52.920;6.536;2022-11-20T07:26:08;1.40;99.90
61016;DHT22;46902;52.920;6.536;2022-11-20T07:28:34;1.40;99.90
61016;DHT22;46902;52.920;6.536;2022-11-20T07:31:00;1.40;99.90
61016;DHT22;46902;52.920;6.536;2022-11-20T07:33:26;1.40;99.90
61016;DHT22;46902;52.920;6.536;2022-11-20T07:35:51;1.40;99.90
61016;DHT22;46902;52.920;6.536;2022-11-20T07:38:17;1.40;99.90
61016;DHT22;46902;52.920;6.536;2022-11-20T07:40:42;1.40;99.90
61016;DHT22;46902;52.920;6.536;2022-11-20T07:43:08;1.40;99.90
61016;DHT22;46902;52.920;6.536;2022-11-20T07:45:34;1.40;99.90
61016;DHT22;46902;52.920;6.536;2022-11-20T07:47:59;1.40;99.90
61016;DHT22;46902;52.920;6.536;2022-11-20T07:50:25;1.40;99.90
61016;DHT22;46902;52.920;6.536;2022-11-20T07:52:50;1.40;99.90
61016;DHT22;46902;52.920;6.536;2022-11-20T07:55:17;1.40;99.90
61016;DHT22;46902;52.920;6.536;2022-11-20T07:57:43;1.40;99.90
61016;DHT22;46902;52.920;6.536;2022-11-20T08:00:10;1.40;99.90
61016;DHT22;46902;52.920;6.536;2022-11-20T08:02:40;1.40;99.90
61016;DHT22;46902;52.920;6.536;2022-11-20T08:05:07;1.40;99.90
61016;DHT22;46902;52.920;6.536;2022-11-20T08:07:41;1.40;99.90
61016;DHT22;46902;52.920;6.536;2022-11-20T08:10:08;1.40;99.90
61016;DHT22;46902;52.920;6.536;2022-11-20T08:12:34;1.50;99.90
61016;DHT22;46902;52.920;6.536;2022-11-20T08:15:18;1.50;99.90
61016;DHT22;46902;52.920;6.536;2022-11-20T08:17:44;1.50;99.90
61016;DHT22;46902;52.920;6.536;2022-11-20T08:20:10;1.50;99.90
61016;DHT22;46902;52.920;6.536;2022-11-20T08:22:35;1.60;99.90
61016;DHT22;46902;52.920;6.536;2022-11-20T08:25:01;1.60;99.90
61016;DHT22;46902;52.920;6.536;2022-11-20T08:27:27;1.70;99.90
61016;DHT22;46902;52.920;6.536;2022-11-20T08:29:52;1.70;99.90
61016;DHT22;46902;52.920;6.536;2022-11-20T08:32:18;1.70;99.90
61016;DHT22;46902;52.920;6.536;2022-11-20T08:34:44;1.70;99.90
61016;DHT22;46902;52.920;6.536;2022-11-20T08:37:09;1.70;99.90
61016;DHT22;46902;52.920;6.536;2022-11-20T08:39:35;1.80;99.90
61016;DHT22;46902;52.920;6.536;2022-11-20T08:42:00;1.80;99.90
61016;DHT22;46902;52.920;6.536;2022-11-20T08:44:26;1.90;99.90
61016;DHT22;46902;52.920;6.536;2022-11-20T08:46:51;1.90;99.90
61016;DHT22;46902;52.920;6.536;2022-11-20T08:49:17;2.00;99.90
61016;DHT22;46902;52.920;6.536;2022-11-20T08:51:43;2.00;99.90
61016;DHT22;46902;52.920;6.536;2022-11-20T08:54:09;2.10;99.90
61016;DHT22;46902;52.920;6.536;2022-11-20T08:56:35;2.10;99.90
61016;DHT22;46902;52.920;6.536;2022-11-20T08:59:00;2.20;99.90
61016;DHT22;46902;52.920;6.536;2022-11-20T09:01:27;2.20;99.90
61016;DHT22;46902;52.920;6.536;2022-11-20T09:03:55;2.20;99.90
61016;DHT22;46902;52.920;6.536;2022-11-20T09:06:21;2.20;99.90
61016;DHT22;46902;52.920;6.536;2022-11-20T09:08:47;2.20;99.90
61016;DHT22;46902;52.920;6.536;2022-11-20T09:11:12;2.30;99.90
61016;DHT22;46902;52.920;6.536;2022-11-20T09:13:38;2.30;99.90
61016;DHT22;46902;52.920;6.536;2022-11-20T09:16:08;2.40;99.90
61016;DHT22;46902;52.920;6.536;2022-11-20T09:18:35;2.40;99.90
61016;DHT22;46902;52.920;6.536;2022-11-20T09:21:12;2.50;99.90
61016;DHT22;46902;52.920;6.536;2022-11-20T09:23:38;2.50;99.90
61016;DHT22;46902;52.920;6.536;2022-11-20T09:26:10;2.50;99.90
61016;DHT22;46902;52.920;6.536;2022-11-20T09:28:36;2.60;99.90
61016;DHT22;46902;52.920;6.536;2022-11-20T09:31:07;2.60;99.90
61016;DHT22;46902;52.920;6.536;2022-11-20T09:33:32;2.60;99.90
61016;DHT22;46902;52.920;6.536;2022-11-20T09:35:58;2.60;99.90
61016;DHT22;46902;52.920;6.536;2022-11-20T09:38:24;2.60;99.90
61016;DHT22;46902;52.920;6.536;2022-11-20T09:41:02;2.60;99.90
61016;DHT22;46902;52.920;6.536;2022-11-20T09:46:32;2.60;99.90
61016;DHT22;46902;52.920;6.536;2022-11-20T09:49:28;2.60;99.90
61016;DHT22;46902;52.920;6.536;2022-11-20T09:52:16;2.60;99.90
61016;DHT22;46902;52.920;6.536;2022-11-20T09:54:44;2.70;99.90
61016;DHT22;46902;52.920;6.536;2022-11-20T09:57:10;2.70;99.90
61016;DHT22;46902;52.920;6.536;2022-11-20T10:00:00;2.70;99.90
61016;DHT22;46902;52.920;6.536;2022-11-20T10:02:35;2.80;99.90
61016;DHT22;46902;52.920;6.536;2022-11-20T10:08:07;2.90;99.90
61016;DHT22;46902;52.920;6.536;2022-11-20T10:10:42;3.00;99.90
61016;DHT22;46902;52.920;6.536;2022-11-20T10:21:09;3.30;99.30
61016;DHT22;46902;52.920;6.536;2022-11-20T10:24:04;3.40;99.30
61016;DHT22;46902;52.920;6.536;2022-11-20T10:26:54;3.50;99.40
61016;DHT22;46902;52.920;6.536;2022-11-20T10:29:43;3.70;99.10
61016;DHT22;46902;52.920;6.536;2022-11-20T10:32:15;3.70;98.10
61016;DHT22;46902;52.920;6.536;2022-11-20T10:34:50;3.70;98.40
61016;DHT22;46902;52.920;6.536;2022-11-20T10:37:23;3.90;98.60
61016;DHT22;46902;52.920;6.536;2022-11-20T10:40:05;4.00;98.50
61016;DHT22;46902;52.920;6.536;2022-11-20T10:43:02;4.10;97.70
61016;DHT22;46902;52.920;6.536;2022-11-20T10:45:53;4.20;97.60
61016;DHT22;46902;52.920;6.536;2022-11-20T10:48:25;4.30;97.40
61016;DHT22;46902;52.920;6.536;2022-11-20T11:01:19;4.40;96.60
61016;DHT22;46902;52.920;6.536;2022-11-20T11:03:52;4.50;96.20
61016;DHT22;46902;52.920;6.536;2022-11-20T11:06:40;4.60;96.40
61016;DHT22;46902;52.920;6.536;2022-11-20T11:09:16;4.70;95.80
61016;DHT22;46902;52.920;6.536;2022-11-20T11:11:42;4.70;95.40
61016;DHT22;46902;52.920;6.536;2022-11-20T11:14:13;4.90;95.70
61016;DHT22;46902;52.920;6.536;2022-11-20T11:16:56;5.00;96.00
61016;DHT22;46902;52.920;6.536;2022-11-20T11:19:23;5.00;94.80
61016;DHT22;46902;52.920;6.536;2022-11-20T11:21:54;5.00;94.30
61016;DHT22;46902;52.920;6.536;2022-11-20T11:24:23;5.00;93.30
61016;DHT22;46902;52.920;6.536;2022-11-20T11:26:59;5.00;93.50
61016;DHT22;46902;52.920;6.536;2022-11-20T11:29:25;5.00;93.40
61016;DHT22;46902;52.920;6.536;2022-11-20T11:32:20;4.90;93.30
61016;DHT22;46902;52.920;6.536;2022-11-20T11:35:04;4.90;93.30
61016;DHT22;46902;52.920;6.536;2022-11-20T11:37:36;4.90;92.90
61016;DHT22;46902;52.920;6.536;2022-11-20T11:40:08;4.80;93.00
61016;DHT22;46902;52.920;6.536;2022-11-20T11:42:39;4.80;93.00
61016;DHT22;46902;52.920;6.536;2022-11-20T11:45:07;4.70;92.20
61016;DHT22;46902;52.920;6.536;2022-11-20T11:53:09;4.80;92.50
61016;DHT22;46902;52.920;6.536;2022-11-20T12:01:17;5.50;91.80
61016;DHT22;46902;52.920;6.536;2022-11-20T12:06:30;6.00;91.20
61016;DHT22;46902;52.920;6.536;2022-11-20T12:09:01;6.90;90.50
61016;DHT22;46902;52.920;6.536;2022-11-20T12:14:21;8.90;82.30
61016;DHT22;46902;52.920;6.536;2022-11-20T12:16:50;9.30;80.70
61016;DHT22;46902;52.920;6.536;2022-11-20T12:19:18;9.50;78.80
61016;DHT22;46902;52.920;6.536;2022-11-20T12:22:09;9.30;78.00
61016;DHT22;46902;52.920;6.536;2022-11-20T12:30:16;7.50;78.10
61016;DHT22;46902;52.920;6.536;2022-11-20T12:38:09;6.30;79.80
61016;DHT22;46902;52.920;6.536;2022-11-20T12:40:56;6.10;81.80
61016;DHT22;46902;52.920;6.536;2022-11-20T12:43:30;6.10;81.40
61016;DHT22;46902;52.920;6.536;2022-11-20T12:54:44;5.80;81.60
61016;DHT22;46902;52.920;6.536;2022-11-20T12:57:50;5.70;81.00
61016;DHT22;46902;52.920;6.536;2022-11-20T13:00:21;5.60;81.20
61016;DHT22;46902;52.920;6.536;2022-11-20T13:05:24;5.30;82.00
61016;DHT22;46902;52.920;6.536;2022-11-20T13:07:53;5.20;82.20
61016;DHT22;46902;52.920;6.536;2022-11-20T13:13:00;5.00;82.80
61016;DHT22;46902;52.920;6.536;2022-11-20T13:18:19;5.30;83.50
61016;DHT22;46902;52.920;6.536;2022-11-20T13:20:46;5.70;82.90
61016;DHT22;46902;52.920;6.536;2022-11-20T13:23:26;5.90;81.70
61016;DHT22;46902;52.920;6.536;2022-11-20T13:26:13;6.10;81.10
61016;DHT22;46902;52.920;6.536;2022-11-20T13:28:40;6.30;80.80
61016;DHT22;46902;52.920;6.536;2022-11-20T13:31:22;6.10;80.70
61016;DHT22;46902;52.920;6.536;2022-11-20T13:33:52;5.90;80.50
61016;DHT22;46902;52.920;6.536;2022-11-20T13:38:51;5.30;81.70
61016;DHT22;46902;52.920;6.536;2022-11-20T13:41:28;5.10;82.20
61016;DHT22;46902;52.920;6.536;2022-11-20T13:44:37;5.00;82.30
61016;DHT22;46902;52.920;6.536;2022-11-20T13:47:04;4.80;82.30
61016;DHT22;46902;52.920;6.536;2022-11-20T13:49:42;4.70;83.60
61016;DHT22;46902;52.920;6.536;2022-11-20T13:55:26;4.60;84.40
61016;DHT22;46902;52.920;6.536;2022-11-20T13:58:28;4.50;85.20
61016;DHT22;46902;52.920;6.536;2022-11-20T14:01:11;4.40;85.80
61016;DHT22;46902;52.920;6.536;2022-11-20T14:03:40;4.40;85.80
61016;DHT22;46902;52.920;6.536;2022-11-20T14:06:13;4.40;86.50
61016;DHT22;46902;52.920;6.536;2022-11-20T14:08:43;4.40;86.70
61016;DHT22;46902;52.920;6.536;2022-11-20T14:14:14;4.30;87.10
61016;DHT22;46902;52.920;6.536;2022-11-20T14:16:40;4.30;86.90
61016;DHT22;46902;52.920;6.536;2022-11-20T14:19:29;4.30;87.70
61016;DHT22;46902;52.920;6.536;2022-11-20T14:22:14;4.30;88.20
61016;DHT22;46902;52.920;6.536;2022-11-20T14:24:43;4.30;88.40
61016;DHT22;46902;52.920;6.536;2022-11-20T14:27:14;4.20;88.50
61016;DHT22;46902;52.920;6.536;2022-11-20T14:29:40;4.20;88.30
61016;DHT22;46902;52.920;6.536;2022-11-20T14:32:09;4.20;88.70
61016;DHT22;46902;52.920;6.536;2022-11-20T14:34:39;4.20;88.40
61016;DHT22;46902;52.920;6.536;2022-11-20T14:37:11;4.20;88.40
61016;DHT22;46902;52.920;6.536;2022-11-20T14:39:41;4.20;88.90
61016;DHT22;46902;52.920;6.536;2022-11-20T14:42:19;4.20;89.30
61016;DHT22;46902;52.920;6.536;2022-11-20T14:44:45;4.20;90.00
61016;DHT22;46902;52.920;6.536;2022-11-20T14:47:15;4.20;90.00
61016;DHT22;46902;52.920;6.536;2022-11-20T14:49:43;4.20;90.20
61016;DHT22;46902;52.920;6.536;2022-11-20T14:52:21;4.10;90.60
61016;DHT22;46902;52.920;6.536;2022-11-20T14:54:49;4.10;90.60
61016;DHT22;46902;52.920;6.536;2022-11-20T14:59:49;4.10;90.90
61016;DHT22;46902;52.920;6.536;2022-11-20T15:02:15;4.00;91.00
61016;DHT22;46902;52.920;6.536;2022-11-20T15:04:56;4.00;91.20
61016;DHT22;46902;52.920;6.536;2022-11-20T15:08:12;4.00;91.20
61016;DHT22;46902;52.920;6.536;2022-11-20T15:10:37;4.00;91.20
61016;DHT22;46902;52.920;6.536;2022-11-20T15:13:12;3.90;91.40
61016;DHT22;46902;52.920;6.536;2022-11-20T15:15:55;3.90;91.50
61016;DHT22;46902;52.920;6.536;2022-11-20T15:18:37;3.90;91.80
61016;DHT22;46902;52.920;6.536;2022-11-20T15:21:13;3.80;92.00
61016;DHT22;46902;52.920;6.536;2022-11-20T15:23:39;3.80;92.10
61016;DHT22;46902;52.920;6.536;2022-11-20T15:26:06;3.80;92.20
61016;DHT22;46902;52.920;6.536;2022-11-20T15:28:34;3.80;92.20
61016;DHT22;46902;52.920;6.536;2022-11-20T15:31:01;3.80;92.40
61016;DHT22;46902;52.920;6.536;2022-11-20T15:33:28;3.80;92.60
61016;DHT22;46902;52.920;6.536;2022-11-20T15:35:54;3.70;92.60
61016;DHT22;46902;52.920;6.536;2022-11-20T15:38:19;3.70;92.60
61016;DHT22;46902;52.920;6.536;2022-11-20T15:40:45;3.70;92.60
61016;DHT22;46902;52.920;6.536;2022-11-20T15:43:10;3.60;92.60
61016;DHT22;46902;52.920;6.536;2022-11-20T15:48:08;3.60;92.80
61016;DHT22;46902;52.920;6.536;2022-11-20T15:50:38;3.60;93.00
61016;DHT22;46902;52.920;6.536;2022-11-20T15:53:04;3.50;93.00
61016;DHT22;46902;52.920;6.536;2022-11-20T15:55:30;3.50;93.20
61016;DHT22;46902;52.920;6.536;2022-11-20T15:57:56;3.50;93.30
61016;DHT22;46902;52.920;6.536;2022-11-20T16:00:21;3.50;93.30
61016;DHT22;46902;52.920;6.536;2022-11-20T16:02:47;3.50;93.40
61016;DHT22;46902;52.920;6.536;2022-11-20T16:05:14;3.40;93.40
61016;DHT22;46902;52.920;6.536;2022-11-20T16:07:40;3.40;93.50
61016;DHT22;46902;52.920;6.536;2022-11-20T16:10:05;3.40;93.60
61016;DHT22;46902;52.920;6.536;2022-11-20T16:12:31;3.40;93.60
61016;DHT22;46902;52.920;6.536;2022-11-20T16:15:15;3.40;93.70
61016;DHT22;46902;52.920;6.536;2022-11-20T16:17:59;3.40;93.90
61016;DHT22;46902;52.920;6.536;2022-11-20T16:20:25;3.40;93.90
61016;DHT22;46902;52.920;6.536;2022-11-20T16:22:50;3.30;93.90
61016;DHT22;46902;52.920;6.536;2022-11-20T16:25:16;3.40;94.10
61016;DHT22;46902;52.920;6.536;2022-11-20T16:27:41;3.40;94.10
61016;DHT22;46902;52.920;6.536;2022-11-20T16:30:08;3.30;94.10
61016;DHT22;46902;52.920;6.536;2022-11-20T16:32:33;3.30;94.20
61016;DHT22;46902;52.920;6.536;2022-11-20T16:34:59;3.30;94.40
61016;DHT22;46902;52.920;6.536;2022-11-20T16:37:24;3.30;94.50
61016;DHT22;46902;52.920;6.536;2022-11-20T16:39:50;3.30;94.60
61016;DHT22;46902;52.920;6.536;2022-11-20T16:42:15;3.30;94.70
61016;DHT22;46902;52.920;6.536;2022-11-20T16:44:41;3.30;94.80
61016;DHT22;46902;52.920;6.536;2022-11-20T16:47:07;3.30;94.80
61016;DHT22;46902;52.920;6.536;2022-11-20T16:49:33;3.30;94.70
61016;DHT22;46902;52.920;6.536;2022-11-20T16:51:59;3.30;94.70
61016;DHT22;46902;52.920;6.536;2022-11-20T16:54:24;3.30;94.80
61016;DHT22;46902;52.920;6.536;2022-11-20T16:56:50;3.30;94.80
61016;DHT22;46902;52.920;6.536;2022-11-20T16:59:17;3.30;94.80
61016;DHT22;46902;52.920;6.536;2022-11-20T17:01:43;3.30;94.90
61016;DHT22;46902;52.920;6.536;2022-11-20T17:04:08;3.30;94.90
61016;DHT22;46902;52.920;6.536;2022-11-20T17:06:41;3.30;95.00
61016;DHT22;46902;52.920;6.536;2022-11-20T17:09:08;3.30;95.10
61016;DHT22;46902;52.920;6.536;2022-11-20T17:11:34;3.30;95.30
61016;DHT22;46902;52.920;6.536;2022-11-20T17:14:00;3.30;95.40
61016;DHT22;46902;52.920;6.536;2022-11-20T17:16:28;3.30;95.50
61016;DHT22;46902;52.920;6.536;2022-11-20T17:18:57;3.30;95.50
61016;DHT22;46902;52.920;6.536;2022-11-20T17:21:23;3.30;95.60
61016;DHT22;46902;52.920;6.536;2022-11-20T17:23:49;3.30;95.70
61016;DHT22;46902;52.920;6.536;2022-11-20T17:26:18;3.30;95.80
61016;DHT22;46902;52.920;6.536;2022-11-20T17:28:52;3.20;95.90
61016;DHT22;46902;52.920;6.536;2022-11-20T17:31:19;3.20;95.90